sensor_id;sensor_type;location;lat;lon;timestamp;temperature;humidity
74666;DHT22;63193;50.106;8.694;2022-09-09T00:04:42;19.90;61.10
74666;DHT22;63193;50.106;8.694;2022-09-09T00:10:29;20.00;61.30
74666;DHT22;63193;50.106;8.694;2022-09-09T00:16:16;19.90;62.20
74666;DHT22;63193;50.106;8.694;2022-09-09T00:19:05;19.90;61.90
74666;DHT22;63193;50.106;8.694;2022-09-09T00:24:44;19.80;62.50
74666;DHT22;63193;50.106;8.694;2022-09-09T00:27:29;19.70;62.50
74666;DHT22;63193;50.106;8.694;2022-09-09T00:30:23;19.70;62.90
74666;DHT22;63193;50.106;8.694;2022-09-09T00:32:53;19.50;63.50
74666;DHT22;63193;50.106;8.694;2022-09-09T00:35:31;19.50;63.50
74666;DHT22;63193;50.106;8.694;2022-09-09T00:38:05;19.40;63.60
74666;DHT22;63193;50.106;8.694;2022-09-09T00:40:39;19.50;63.70
74666;DHT22;63193;50.106;8.694;2022-09-09T00:43:28;19.50;63.60
74666;DHT22;63193;50.106;8.694;2022-09-09T00:52:26;19.40;64.00
74666;DHT22;63193;50.106;8.694;2022-09-09T00:58:07;19.30;64.50
74666;DHT22;63193;50.106;8.694;2022-09-09T01:01:07;19.30;64.90
74666;DHT22;63193;50.106;8.694;2022-09-09T01:03:40;19.20;64.90
74666;DHT22;63193;50.106;8.694;2022-09-09T01:06:35;19.30;65.10
74666;DHT22;63193;50.106;8.694;2022-09-09T01:09:56;19.20;64.90
74666;DHT22;63193;50.106;8.694;2022-09-09T01:12:45;19.20;65.20
74666;DHT22;63193;50.106;8.694;2022-09-09T01:15:16;19.30;65.20
74666;DHT22;63193;50.106;8.694;2022-09-09T01:18:13;19.30;65.10
74666;DHT22;63193;50.106;8.694;2022-09-09T01:21:13;19.30;65.10
74666;DHT22;63193;50.106;8.694;2022-09-09T01:26:52;19.10;65.60
74666;DHT22;63193;50.106;8.694;2022-09-09T01:29:21;19.20;66.00
74666;DHT22;63193;50.106;8.694;2022-09-09T01:34:57;19.00;66.40
74666;DHT22;63193;50.106;8.694;2022-09-09T01:37:23;19.10;66.40
74666;DHT22;63193;50.106;8.694;2022-09-09T01:39:49;19.10;66.40
74666;DHT22;63193;50.106;8.694;2022-09-09T01:42:16;19.00;66.60
74666;DHT22;63193;50.106;8.694;2022-09-09T01:44:41;19.00;66.40
74666;DHT22;63193;50.106;8.694;2022-09-09T01:47:07;19.00;66.40
74666;DHT22;63193;50.106;8.694;2022-09-09T01:49:33;19.00;66.60
74666;DHT22;63193;50.106;8.694;2022-09-09T01:51:59;19.00;66.90
74666;DHT22;63193;50.106;8.694;2022-09-09T01:54:28;19.00;66.80
74666;DHT22;63193;50.106;8.694;2022-09-09T01:57:23;19.00;67.20
74666;DHT22;63193;50.106;8.694;2022-09-09T02:00:00;18.90;67.30
74666;DHT22;63193;50.106;8.694;2022-09-09T02:02:57;18.90;67.00
74666;DHT22;63193;50.106;8.694;2022-09-09T02:06:17;19.00;67.40
74666;DHT22;63193;50.106;8.694;2022-09-09T02:08:44;18.90;67.40
74666;DHT22;63193;50.106;8.694;2022-09-09T02:11:18;18.90;67.30
74666;DHT22;63193;50.106;8.694;2022-09-09T02:13:47;18.90;67.50
74666;DHT22;63193;50.106;8.694;2022-09-09T02:16:40;18.90;67.80
74666;DHT22;63193;50.106;8.694;2022-09-09T02:19:27;18.90;68.20
74666;DHT22;63193;50.106;8.694;2022-09-09T02:21:57;18.80;68.40
74666;DHT22;63193;50.106;8.694;2022-09-09T02:24:26;18.90;68.20
74666;DHT22;63193;50.106;8.694;2022-09-09T02:26:53;18.90;68.10
74666;DHT22;63193;50.106;8.694;2022-09-09T02:29:31;18.90;68.50
74666;DHT22;63193;50.106;8.694;2022-09-09T02:32:01;18.80;68.80
74666;DHT22;63193;50.106;8.694;2022-09-09T02:34:29;18.80;69.90
74666;DHT22;63193;50.106;8.694;2022-09-09T02:36:57;18.80;68.70
74666;DHT22;63193;50.106;8.694;2022-09-09T02:39:25;18.90;68.50
74666;DHT22;63193;50.106;8.694;2022-09-09T02:41:50;18.90;68.40
74666;DHT22;63193;50.106;8.694;2022-09-09T02:44:18;19.00;68.10
74666;DHT22;63193;50.106;8.694;2022-09-09T02:53:17;19.00;68.00
74666;DHT22;63193;50.106;8.694;2022-09-09T02:55:59;19.10;67.90
74666;DHT22;63193;50.106;8.694;2022-09-09T02:58:27;19.00;68.00
74666;DHT22;63193;50.106;8.694;2022-09-09T03:00:53;19.10;68.00
74666;DHT22;63193;50.106;8.694;2022-09-09T03:03:19;19.10;68.00
74666;DHT22;63193;50.106;8.694;2022-09-09T03:05:45;19.10;68.00
74666;DHT22;63193;50.106;8.694;2022-09-09T03:08:11;19.10;68.30
74666;DHT22;63193;50.106;8.694;2022-09-09T03:10:38;19.10;68.30
74666;DHT22;63193;50.106;8.694;2022-09-09T03:13:04;19.10;68.30
74666;DHT22;63193;50.106;8.694;2022-09-09T03:15:31;19.10;68.30
74666;DHT22;63193;50.106;8.694;2022-09-09T03:17:58;19.00;68.40
74666;DHT22;63193;50.106;8.694;2022-09-09T03:20:26;19.10;68.50
74666;DHT22;63193;50.106;8.694;2022-09-09T03:22:55;19.10;68.50
74666;DHT22;63193;50.106;8.694;2022-09-09T03:25:22;19.00;68.70
74666;DHT22;63193;50.106;8.694;2022-09-09T03:27:51;19.00;68.40
74666;DHT22;63193;50.106;8.694;2022-09-09T03:30:23;19.00;68.50
74666;DHT22;63193;50.106;8.694;2022-09-09T03:32:48;19.00;69.00
74666;DHT22;63193;50.106;8.694;2022-09-09T03:35:14;18.90;68.90
74666;DHT22;63193;50.106;8.694;2022-09-09T03:37:41;18.80;69.70
74666;DHT22;63193;50.106;8.694;2022-09-09T03:40:07;18.80;69.80
74666;DHT22;63193;50.106;8.694;2022-09-09T03:42:35;18.80;70.00
74666;DHT22;63193;50.106;8.694;2022-09-09T03:45:03;18.70;70.20
74666;DHT22;63193;50.106;8.694;2022-09-09T03:47:28;18.70;70.40
74666;DHT22;63193;50.106;8.694;2022-09-09T03:49:55;18.60;70.50
74666;DHT22;63193;50.106;8.694;2022-09-09T03:52:20;18.60;70.50
74666;DHT22;63193;50.106;8.694;2022-09-09T03:54:47;18.60;70.70
74666;DHT22;63193;50.106;8.694;2022-09-09T03:57:13;18.60;70.80
74666;DHT22;63193;50.106;8.694;2022-09-09T03:59:42;18.60;70.70
74666;DHT22;63193;50.106;8.694;2022-09-09T04:02:07;18.60;70.80
74666;DHT22;63193;50.106;8.694;2022-09-09T04:04:33;18.60;70.90
74666;DHT22;63193;50.106;8.694;2022-09-09T04:06:59;18.60;70.50
74666;DHT22;63193;50.106;8.694;2022-09-09T04:09:24;18.70;70.50
74666;DHT22;63193;50.106;8.694;2022-09-09T04:11:50;18.70;70.40
74666;DHT22;63193;50.106;8.694;2022-09-09T04:14:15;18.60;70.60
74666;DHT22;63193;50.106;8.694;2022-09-09T04:16:41;18.60;70.70
74666;DHT22;63193;50.106;8.694;2022-09-09T04:19:10;18.60;71.10
74666;DHT22;63193;50.106;8.694;2022-09-09T04:21:38;18.50;71.50
74666;DHT22;63193;50.106;8.694;2022-09-09T04:24:05;18.50;71.30
74666;DHT22;63193;50.106;8.694;2022-09-09T04:26:31;18.50;71.50
74666;DHT22;63193;50.106;8.694;2022-09-09T04:28:57;18.50;71.50
74666;DHT22;63193;50.106;8.694;2022-09-09T04:31:23;18.50;71.80
74666;DHT22;63193;50.106;8.694;2022-09-09T04:33:49;18.50;71.30
74666;DHT22;63193;50.106;8.694;2022-09-09T04:36:15;18.50;71.20
74666;DHT22;63193;50.106;8.694;2022-09-09T04:38:41;18.60;71.40
74666;DHT22;63193;50.106;8.694;2022-09-09T04:41:07;18.50;71.30
74666;DHT22;63193;50.106;8.694;2022-09-09T04:43:33;18.50;71.50
74666;DHT22;63193;50.106;8.694;2022-09-09T04:45:58;18.40;71.70
74666;DHT22;63193;50.106;8.694;2022-09-09T04:48:24;18.50;71.80
74666;DHT22;63193;50.106;8.694;2022-09-09T04:51:12;18.40;71.60
74666;DHT22;63193;50.106;8.694;2022-09-09T04:53:38;18.50;71.80
74666;DHT22;63193;50.106;8.694;2022-09-09T04:56:07;18.40;71.80
74666;DHT22;63193;50.106;8.694;2022-09-09T04:58:33;18.40;71.70
74666;DHT22;63193;50.106;8.694;2022-09-09T05:01:10;18.40;71.60
74666;DHT22;63193;50.106;8.694;2022-09-09T05:03:35;18.40;71.50
74666;DHT22;63193;50.106;8.694;2022-09-09T05:06:09;18.50;71.30
74666;DHT22;63193;50.106;8.694;2022-09-09T05:08:37;18.50;71.10
74666;DHT22;63193;50.106;8.694;2022-09-09T05:11:04;18.60;71.10
74666;DHT22;63193;50.106;8.694;2022-09-09T05:13:29;18.60;70.90
74666;DHT22;63193;50.106;8.694;2022-09-09T05:15:57;18.70;70.80
74666;DHT22;63193;50.106;8.694;2022-09-09T05:18:23;18.70;70.60
74666;DHT22;63193;50.106;8.694;2022-09-09T05:20:49;18.70;70.70
74666;DHT22;63193;50.106;8.694;2022-09-09T05:23:14;18.70;70.80
74666;DHT22;63193;50.106;8.694;2022-09-09T05:25:40;18.70;70.80
74666;DHT22;63193;50.106;8.694;2022-09-09T05:28:07;18.70;70.90
74666;DHT22;63193;50.106;8.694;2022-09-09T05:30:33;18.60;70.90
74666;DHT22;63193;50.106;8.694;2022-09-09T05:32:59;18.60;71.00
74666;DHT22;63193;50.106;8.694;2022-09-09T05:35:26;18.60;71.10
74666;DHT22;63193;50.106;8.694;2022-09-09T05:37:52;18.70;71.10
74666;DHT22;63193;50.106;8.694;2022-09-09T05:40:17;18.60;71.20
74666;DHT22;63193;50.106;8.694;2022-09-09T05:42:44;18.60;71.20
74666;DHT22;63193;50.106;8.694;2022-09-09T05:45:09;18.70;71.30
74666;DHT22;63193;50.106;8.694;2022-09-09T05:47:36;18.70;71.30
74666;DHT22;63193;50.106;8.694;2022-09-09T05:50:03;18.70;71.20
74666;DHT22;63193;50.106;8.694;2022-09-09T05:52:28;18.60;71.30
74666;DHT22;63193;50.106;8.694;2022-09-09T05:54:54;18.70;71.30
74666;DHT22;63193;50.106;8.694;2022-09-09T05:57:20;18.70;71.40
74666;DHT22;63193;50.106;8.694;2022-09-09T05:59:46;18.70;71.40
74666;DHT22;63193;50.106;8.694;2022-09-09T06:02:11;18.70;71.20
74666;DHT22;63193;50.106;8.694;2022-09-09T06:04:38;18.70;71.20
74666;DHT22;63193;50.106;8.694;2022-09-09T06:07:04;18.70;71.00
74666;DHT22;63193;50.106;8.694;2022-09-09T06:09:30;18.80;70.80
74666;DHT22;63193;50.106;8.694;2022-09-09T06:11:56;18.80;70.80
74666;DHT22;63193;50.106;8.694;2022-09-09T06:14:23;18.80;70.70
74666;DHT22;63193;50.106;8.694;2022-09-09T06:16:51;18.80;70.40
74666;DHT22;63193;50.106;8.694;2022-09-09T06:19:16;18.80;70.30
74666;DHT22;63193;50.106;8.694;2022-09-09T06:21:42;18.90;70.00
74666;DHT22;63193;50.106;8.694;2022-09-09T06:24:10;19.10;69.40
74666;DHT22;63193;50.106;8.694;2022-09-09T06:26:38;19.10;69.10
74666;DHT22;63193;50.106;8.694;2022-09-09T06:29:07;19.00;69.10
74666;DHT22;63193;50.106;8.694;2022-09-09T06:31:34;19.10;69.10
74666;DHT22;63193;50.106;8.694;2022-09-09T06:34:03;19.10;68.80
74666;DHT22;63193;50.106;8.694;2022-09-09T06:36:32;19.10;68.80
74666;DHT22;63193;50.106;8.694;2022-09-09T06:38:58;19.20;68.80
74666;DHT22;63193;50.106;8.694;2022-09-09T06:41:25;19.20;68.30
74666;DHT22;63193;50.106;8.694;2022-09-09T06:43:54;19.40;67.80
74666;DHT22;63193;50.106;8.694;2022-09-09T06:46:26;19.40;67.30
74666;DHT22;63193;50.106;8.694;2022-09-09T06:48:53;19.50;67.30
74666;DHT22;63193;50.106;8.694;2022-09-09T06:51:22;19.60;66.90
74666;DHT22;63193;50.106;8.694;2022-09-09T06:53:50;19.60;66.70
74666;DHT22;63193;50.106;8.694;2022-09-09T06:58:48;19.70;66.40
74666;DHT22;63193;50.106;8.694;2022-09-09T07:01:16;19.80;66.00
74666;DHT22;63193;50.106;8.694;2022-09-09T07:03:45;19.80;65.70
74666;DHT22;63193;50.106;8.694;2022-09-09T07:06:15;19.80;65.40
74666;DHT22;63193;50.106;8.694;2022-09-09T07:08:43;19.90;65.30
74666;DHT22;63193;50.106;8.694;2022-09-09T07:11:09;20.00;65.10
74666;DHT22;63193;50.106;8.694;2022-09-09T07:13:35;20.10;64.50
74666;DHT22;63193;50.106;8.694;2022-09-09T07:16:11;20.10;64.20
74666;DHT22;63193;50.106;8.694;2022-09-09T07:18:37;20.20;63.80
74666;DHT22;63193;50.106;8.694;2022-09-09T07:21:03;20.20;63.70
74666;DHT22;63193;50.106;8.694;2022-09-09T07:23:30;20.20;63.70
74666;DHT22;63193;50.106;8.694;2022-09-09T07:25:57;20.20;63.50
74666;DHT22;63193;50.106;8.694;2022-09-09T07:28:24;20.00;63.80
74666;DHT22;63193;50.106;8.694;2022-09-09T07:30:57;19.90;64.30
74666;DHT22;63193;50.106;8.694;2022-09-09T07:33:24;19.90;64.80
74666;DHT22;63193;50.106;8.694;2022-09-09T07:35:50;19.90;65.00
74666;DHT22;63193;50.106;8.694;2022-09-09T07:38:15;19.80;65.00
74666;DHT22;63193;50.106;8.694;2022-09-09T07:40:41;19.70;64.90
74666;DHT22;63193;50.106;8.694;2022-09-09T07:43:07;19.80;65.00
74666;DHT22;63193;50.106;8.694;2022-09-09T07:45:33;19.90;65.00
74666;DHT22;63193;50.106;8.694;2022-09-09T07:47:59;19.90;64.60
74666;DHT22;63193;50.106;8.694;2022-09-09T07:50:25;20.00;64.40
74666;DHT22;63193;50.106;8.694;2022-09-09T07:52:51;20.10;64.00
74666;DHT22;63193;50.106;8.694;2022-09-09T07:55:19;20.20;63.30
74666;DHT22;63193;50.106;8.694;2022-09-09T07:57:44;20.30;63.20
74666;DHT22;63193;50.106;8.694;2022-09-09T08:00:11;20.20;63.20
74666;DHT22;63193;50.106;8.694;2022-09-09T08:02:37;20.20;63.60
74666;DHT22;63193;50.106;8.694;2022-09-09T08:05:02;20.20;63.60
74666;DHT22;63193;50.106;8.694;2022-09-09T08:07:28;20.20;63.70
74666;DHT22;63193;50.106;8.694;2022-09-09T08:09:54;20.10;63.80
74666;DHT22;63193;50.106;8.694;2022-09-09T08:12:21;20.10;64.20
74666;DHT22;63193;50.106;8.694;2022-09-09T08:14:46;20.10;64.00
74666;DHT22;63193;50.106;8.694;2022-09-09T08:17:12;20.20;63.70
74666;DHT22;63193;50.106;8.694;2022-09-09T08:19:38;20.40;63.10
74666;DHT22;63193;50.106;8.694;2022-09-09T08:22:03;20.70;62.10
74666;DHT22;63193;50.106;8.694;2022-09-09T08:24:29;21.00;60.80
74666;DHT22;63193;50.106;8.694;2022-09-09T08:26:55;21.20;60.10
74666;DHT22;63193;50.106;8.694;2022-09-09T08:29:22;21.30;59.60
74666;DHT22;63193;50.106;8.694;2022-09-09T08:31:50;21.50;58.90
74666;DHT22;63193;50.106;8.694;2022-09-09T08:34:16;21.50;58.30
74666;DHT22;63193;50.106;8.694;2022-09-09T08:36:46;21.50;58.40
74666;DHT22;63193;50.106;8.694;2022-09-09T08:39:15;21.70;58.20
74666;DHT22;63193;50.106;8.694;2022-09-09T08:42:31;21.80;57.80
74666;DHT22;63193;50.106;8.694;2022-09-09T08:45:27;22.00;57.00
74666;DHT22;63193;50.106;8.694;2022-09-09T08:48:08;22.30;56.50
74666;DHT22;63193;50.106;8.694;2022-09-09T08:50:39;22.30;56.30
74666;DHT22;63193;50.106;8.694;2022-09-09T08:53:21;22.30;56.20
74666;DHT22;63193;50.106;8.694;2022-09-09T08:55:53;22.00;56.70
74666;DHT22;63193;50.106;8.694;2022-09-09T08:58:31;21.80;57.40
74666;DHT22;63193;50.106;8.694;2022-09-09T09:08:40;21.50;58.00
74666;DHT22;63193;50.106;8.694;2022-09-09T09:10:58;21.50;57.70
74666;DHT22;63193;50.106;8.694;2022-09-09T09:14:07;21.40;57.50
74666;DHT22;63193;50.106;8.694;2022-09-09T09:16:55;21.50;58.20
74666;DHT22;63193;50.106;8.694;2022-09-09T09:19:22;21.60;58.00
74666;DHT22;63193;50.106;8.694;2022-09-09T09:22:21;21.60;57.70
74666;DHT22;63193;50.106;8.694;2022-09-09T09:25:20;21.90;57.20
74666;DHT22;63193;50.106;8.694;2022-09-09T09:28:16;22.60;55.20
74666;DHT22;63193;50.106;8.694;2022-09-09T09:30:56;22.70;55.30
74666;DHT22;63193;50.106;8.694;2022-09-09T09:33:50;22.30;58.70
74666;DHT22;63193;50.106;8.694;2022-09-09T09:36:16;21.70;58.20
74666;DHT22;63193;50.106;8.694;2022-09-09T09:38:57;21.30;59.00
74666;DHT22;63193;50.106;8.694;2022-09-09T09:41:42;21.10;59.50
74666;DHT22;63193;50.106;8.694;2022-09-09T09:44:28;21.00;60.00
74666;DHT22;63193;50.106;8.694;2022-09-09T09:47:15;21.00;60.90
74666;DHT22;63193;50.106;8.694;2022-09-09T09:50:02;20.90;62.60
74666;DHT22;63193;50.106;8.694;2022-09-09T09:52:29;20.80;61.50
74666;DHT22;63193;50.106;8.694;2022-09-09T09:54:57;20.80;64.10
74666;DHT22;63193;50.106;8.694;2022-09-09T09:57:26;20.60;67.40
74666;DHT22;63193;50.106;8.694;2022-09-09T10:00:03;20.50;68.80
74666;DHT22;63193;50.106;8.694;2022-09-09T10:02:41;20.40;68.00
74666;DHT22;63193;50.106;8.694;2022-09-09T10:05:35;20.50;66.80
74666;DHT22;63193;50.106;8.694;2022-09-09T10:08:19;20.70;65.30
74666;DHT22;63193;50.106;8.694;2022-09-09T10:11:55;20.80;65.40
74666;DHT22;63193;50.106;8.694;2022-09-09T10:14:20;20.80;66.00
74666;DHT22;63193;50.106;8.694;2022-09-09T10:17:11;20.90;66.10
74666;DHT22;63193;50.106;8.694;2022-09-09T10:19:37;21.00;66.20
74666;DHT22;63193;50.106;8.694;2022-09-09T10:22:34;21.10;66.50
74666;DHT22;63193;50.106;8.694;2022-09-09T10:25:33;24.30;58.40
74666;DHT22;63193;50.106;8.694;2022-09-09T10:28:10;28.70;48.70
74666;DHT22;63193;50.106;8.694;2022-09-09T10:33:57;28.10;45.00
74666;DHT22;63193;50.106;8.694;2022-09-09T10:36:27;26.40;48.30
74666;DHT22;63193;50.106;8.694;2022-09-09T10:39:05;26.30;49.00
74666;DHT22;63193;50.106;8.694;2022-09-09T10:44:50;25.50;51.30
74666;DHT22;63193;50.106;8.694;2022-09-09T10:50:58;25.10;50.00
74666;DHT22;63193;50.106;8.694;2022-09-09T10:56:33;23.70;53.50
74666;DHT22;63193;50.106;8.694;2022-09-09T10:59:04;23.10;56.50
74666;DHT22;63193;50.106;8.694;2022-09-09T11:01:37;22.50;57.10
74666;DHT22;63193;50.106;8.694;2022-09-09T11:04:35;22.20;59.60
74666;DHT22;63193;50.106;8.694;2022-09-09T11:07:08;21.90;63.20
74666;DHT22;63193;50.106;8.694;2022-09-09T11:09:39;21.90;66.80
74666;DHT22;63193;50.106;8.694;2022-09-09T11:12:10;22.20;64.90
74666;DHT22;63193;50.106;8.694;2022-09-09T11:14:45;22.60;61.20
74666;DHT22;63193;50.106;8.694;2022-09-09T11:17:42;23.20;60.20
74666;DHT22;63193;50.106;8.694;2022-09-09T11:20:13;23.70;59.00
74666;DHT22;63193;50.106;8.694;2022-09-09T11:22:50;23.60;57.90
74666;DHT22;63193;50.106;8.694;2022-09-09T11:25:26;23.70;57.30
74666;DHT22;63193;50.106;8.694;2022-09-09T11:28:06;24.30;57.30
74666;DHT22;63193;50.106;8.694;2022-09-09T11:31:05;25.40;54.00
74666;DHT22;63193;50.106;8.694;2022-09-09T11:34:16;25.20;52.50
74666;DHT22;63193;50.106;8.694;2022-09-09T11:37:17;25.00;53.20
74666;DHT22;63193;50.106;8.694;2022-09-09T11:40:05;24.80;51.50
74666;DHT22;63193;50.106;8.694;2022-09-09T11:42:33;24.50;53.40
74666;DHT22;63193;50.106;8.694;2022-09-09T11:45:09;24.40;51.40
74666;DHT22;63193;50.106;8.694;2022-09-09T11:47:36;24.50;50.70
74666;DHT22;63193;50.106;8.694;2022-09-09T11:50:32;24.40;50.80
74666;DHT22;63193;50.106;8.694;2022-09-09T11:53:19;24.20;50.60
74666;DHT22;63193;50.106;8.694;2022-09-09T11:55:46;24.10;49.90
74666;DHT22;63193;50.106;8.694;2022-09-09T11:58:17;24.00;50.30
74666;DHT22;63193;50.106;8.694;2022-09-09T12:00:48;23.70;50.50
74666;DHT22;63193;50.106;8.694;2022-09-09T12:03:47;23.40;49.40
74666;DHT22;63193;50.106;8.694;2022-09-09T12:06:29;23.10;49.60
74666;DHT22;63193;50.106;8.694;2022-09-09T12:09:29;22.80;51.30
74666;DHT22;63193;50.106;8.694;2022-09-09T12:11:52;22.80;53.20
74666;DHT22;63193;50.106;8.694;2022-09-09T12:14:54;22.80;51.90
74666;DHT22;63193;50.106;8.694;2022-09-09T12:17:28;22.90;51.50
74666;DHT22;63193;50.106;8.694;2022-09-09T12:20:08;23.00;50.80
74666;DHT22;63193;50.106;8.694;2022-09-09T12:28:41;23.10;49.00
74666;DHT22;63193;50.106;8.694;2022-09-09T12:31:34;23.10;50.30
74666;DHT22;63193;50.106;8.694;2022-09-09T12:34:30;23.30;50.80
74666;DHT22;63193;50.106;8.694;2022-09-09T12:37:06;23.30;49.20
74666;DHT22;63193;50.106;8.694;2022-09-09T12:39:39;23.30;49.80
74666;DHT22;63193;50.106;8.694;2022-09-09T12:42:20;23.10;49.60
74666;DHT22;63193;50.106;8.694;2022-09-09T12:45:00;23.00;50.70
74666;DHT22;63193;50.106;8.694;2022-09-09T12:48:09;22.80;51.00
74666;DHT22;63193;50.106;8.694;2022-09-09T12:50:30;22.70;51.90
74666;DHT22;63193;50.106;8.694;2022-09-09T12:53:12;22.50;51.80
74666;DHT22;63193;50.106;8.694;2022-09-09T12:55:54;21.60;81.30
74666;DHT22;63193;50.106;8.694;2022-09-09T12:58:21;20.00;95.60
74666;DHT22;63193;50.106;8.694;2022-09-09T13:00:51;19.60;99.90
74666;DHT22;63193;50.106;8.694;2022-09-09T13:03:19;19.20;99.90
74666;DHT22;63193;50.106;8.694;2022-09-09T13:05:46;19.30;99.90
74666;DHT22;63193;50.106;8.694;2022-09-09T13:08:13;19.20;99.90
74666;DHT22;63193;50.106;8.694;2022-09-09T13:11:00;19.20;99.90
74666;DHT22;63193;50.106;8.694;2022-09-09T13:13:40;19.40;99.90
74666;DHT22;63193;50.106;8.694;2022-09-09T13:16:22;19.60;99.90
74666;DHT22;63193;50.106;8.694;2022-09-09T13:18:48;19.60;99.90
74666;DHT22;63193;50.106;8.694;2022-09-09T13:21:14;19.60;99.90
74666;DHT22;63193;50.106;8.694;2022-09-09T13:23:40;19.70;99.90
74666;DHT22;63193;50.106;8.694;2022-09-09T13:26:26;19.40;99.90
74666;DHT22;63193;50.106;8.694;2022-09-09T13:28:53;19.30;99.90
74666;DHT22;63193;50.106;8.694;2022-09-09T13:31:27;19.30;97.60
74666;DHT22;63193;50.106;8.694;2022-09-09T13:33:53;19.20;98.90
74666;DHT22;63193;50.106;8.694;2022-09-09T13:36:29;19.10;92.10
74666;DHT22;63193;50.106;8.694;2022-09-09T13:38:57;19.10;97.00
74666;DHT22;63193;50.106;8.694;2022-09-09T13:41:29;19.20;92.30
74666;DHT22;63193;50.106;8.694;2022-09-09T13:43:55;19.30;90.40
74666;DHT22;63193;50.106;8.694;2022-09-09T13:46:41;19.30;89.10
74666;DHT22;63193;50.106;8.694;2022-09-09T13:49:28;19.60;89.60
74666;DHT22;63193;50.106;8.694;2022-09-09T13:52:04;19.70;83.10
74666;DHT22;63193;50.106;8.694;2022-09-09T13:54:31;20.00;80.30
74666;DHT22;63193;50.106;8.694;2022-09-09T13:56:57;20.30;82.70
74666;DHT22;63193;50.106;8.694;2022-09-09T13:59:22;20.50;73.40
74666;DHT22;63193;50.106;8.694;2022-09-09T14:01:49;20.60;73.00
74666;DHT22;63193;50.106;8.694;2022-09-09T14:04:18;20.80;72.50
74666;DHT22;63193;50.106;8.694;2022-09-09T14:06:43;20.80;66.90
74666;DHT22;63193;50.106;8.694;2022-09-09T14:09:13;20.90;64.70
74666;DHT22;63193;50.106;8.694;2022-09-09T14:11:40;21.00;60.50
74666;DHT22;63193;50.106;8.694;2022-09-09T14:14:06;21.00;61.00
74666;DHT22;63193;50.106;8.694;2022-09-09T14:16:32;21.00;60.50
74666;DHT22;63193;50.106;8.694;2022-09-09T14:18:58;21.00;61.10
74666;DHT22;63193;50.106;8.694;2022-09-09T14:21:25;21.00;60.40
74666;DHT22;63193;50.106;8.694;2022-09-09T14:23:51;21.00;60.40
74666;DHT22;63193;50.106;8.694;2022-09-09T14:26:18;21.00;60.50
74666;DHT22;63193;50.106;8.694;2022-09-09T14:28:46;21.00;60.80
74666;DHT22;63193;50.106;8.694;2022-09-09T14:31:12;21.00;60.60
74666;DHT22;63193;50.106;8.694;2022-09-09T14:33:38;21.00;61.20
74666;DHT22;63193;50.106;8.694;2022-09-09T14:36:04;21.00;61.80
74666;DHT22;63193;50.106;8.694;2022-09-09T14:38:33;21.00;61.10
74666;DHT22;63193;50.106;8.694;2022-09-09T14:41:00;21.10;61.40
74666;DHT22;63193;50.106;8.694;2022-09-09T14:43:26;21.20;60.50
74666;DHT22;63193;50.106;8.694;2022-09-09T14:45:52;21.20;60.40
74666;DHT22;63193;50.106;8.694;2022-09-09T14:48:18;21.30;60.00
74666;DHT22;63193;50.106;8.694;2022-09-09T14:50:44;21.40;59.90
74666;DHT22;63193;50.106;8.694;2022-09-09T14:53:09;21.40;59.60
74666;DHT22;63193;50.106;8.694;2022-09-09T14:55:36;21.40;59.70
74666;DHT22;63193;50.106;8.694;2022-09-09T14:58:02;21.50;59.40
74666;DHT22;63193;50.106;8.694;2022-09-09T15:00:28;21.60;59.10
74666;DHT22;63193;50.106;8.694;2022-09-09T15:02:53;21.60;59.20
74666;DHT22;63193;50.106;8.694;2022-09-09T15:05:19;21.50;58.00
74666;DHT22;63193;50.106;8.694;2022-09-09T15:07:45;21.50;58.00
74666;DHT22;63193;50.106;8.694;2022-09-09T15:10:10;21.60;57.40
74666;DHT22;63193;50.106;8.694;2022-09-09T15:12:36;21.50;58.50
74666;DHT22;63193;50.106;8.694;2022-09-09T15:15:04;21.50;58.10
74666;DHT22;63193;50.106;8.694;2022-09-09T15:17:31;21.40;58.60
74666;DHT22;63193;50.106;8.694;2022-09-09T15:19:56;21.30;58.40
74666;DHT22;63193;50.106;8.694;2022-09-09T15:22:23;21.30;59.10
74666;DHT22;63193;50.106;8.694;2022-09-09T15:24:49;21.20;59.90
74666;DHT22;63193;50.106;8.694;2022-09-09T15:27:15;21.30;60.10
74666;DHT22;63193;50.106;8.694;2022-09-09T15:29:41;21.40;59.50
74666;DHT22;63193;50.106;8.694;2022-09-09T15:32:07;21.40;59.20
74666;DHT22;63193;50.106;8.694;2022-09-09T15:34:33;21.50;58.80
74666;DHT22;63193;50.106;8.694;2022-09-09T15:36:59;21.50;58.60
74666;DHT22;63193;50.106;8.694;2022-09-09T15:39:25;21.60;58.10
74666;DHT22;63193;50.106;8.694;2022-09-09T15:41:51;21.70;57.70
74666;DHT22;63193;50.106;8.694;2022-09-09T15:44:17;21.70;57.60
74666;DHT22;63193;50.106;8.694;2022-09-09T15:46:51;21.80;57.60
74666;DHT22;63193;50.106;8.694;2022-09-09T15:49:27;21.80;57.80
74666;DHT22;63193;50.106;8.694;2022-09-09T15:51:57;21.90;57.20
74666;DHT22;63193;50.106;8.694;2022-09-09T15:54:24;21.80;57.10
74666;DHT22;63193;50.106;8.694;2022-09-09T15:56:55;21.70;57.20
74666;DHT22;63193;50.106;8.694;2022-09-09T15:59:22;21.60;57.50
74666;DHT22;63193;50.106;8.694;2022-09-09T16:01:48;21.50;58.00
74666;DHT22;63193;50.106;8.694;2022-09-09T16:04:17;21.30;58.00
74666;DHT22;63193;50.106;8.694;2022-09-09T16:07:06;21.30;58.40
74666;DHT22;63193;50.106;8.694;2022-09-09T16:09:33;21.20;59.10
74666;DHT22;63193;50.106;8.694;2022-09-09T16:11:59;21.10;59.40
74666;DHT22;63193;50.106;8.694;2022-09-09T16:14:31;21.00;59.50
74666;DHT22;63193;50.106;8.694;2022-09-09T16:16:59;21.00;59.80
74666;DHT22;63193;50.106;8.694;2022-09-09T16:19:25;20.90;59.80
74666;DHT22;63193;50.106;8.694;2022-09-09T16:21:51;20.90;60.20
74666;DHT22;63193;50.106;8.694;2022-09-09T16:24:18;20.80;60.60
74666;DHT22;63193;50.106;8.694;2022-09-09T16:26:47;20.90;61.00
74666;DHT22;63193;50.106;8.694;2022-09-09T16:29:14;20.80;61.00
74666;DHT22;63193;50.106;8.694;2022-09-09T16:31:40;20.70;60.90
74666;DHT22;63193;50.106;8.694;2022-09-09T16:34:07;20.60;61.30
74666;DHT22;63193;50.106;8.694;2022-09-09T16:36:35;20.70;61.60
74666;DHT22;63193;50.106;8.694;2022-09-09T16:39:06;20.70;61.50
74666;DHT22;63193;50.106;8.694;2022-09-09T16:41:33;20.70;60.70
74666;DHT22;63193;50.106;8.694;2022-09-09T16:44:00;20.70;60.40
74666;DHT22;63193;50.106;8.694;2022-09-09T16:46:28;20.70;61.00
74666;DHT22;63193;50.106;8.694;2022-09-09T16:48:56;20.70;61.20
74666;DHT22;63193;50.106;8.694;2022-09-09T16:51:26;20.60;61.70
74666;DHT22;63193;50.106;8.694;2022-09-09T16:53:52;20.60;62.30
74666;DHT22;63193;50.106;8.694;2022-09-09T16:56:24;20.50;62.80
74666;DHT22;63193;50.106;8.694;2022-09-09T16:58:55;20.50;63.20
74666;DHT22;63193;50.106;8.694;2022-09-09T17:01:22;20.40;63.40
74666;DHT22;63193;50.106;8.694;2022-09-09T17:03:53;20.50;64.00
74666;DHT22;63193;50.106;8.694;2022-09-09T17:06:18;20.40;64.20